sensor_id;sensor_type;location;lat;lon;timestamp;temperature;humidity
19813;DHT22;10066;48.108;11.448;2023-03-01T00:02:15;1.60;99.90
19813;DHT22;10066;48.108;11.448;2023-03-01T00:04:42;1.60;99.90
19813;DHT22;10066;48.108;11.448;2023-03-01T00:07:09;1.60;99.90
19813;DHT22;10066;48.108;11.448;2023-03-01T00:09:37;1.60;99.90
19813;DHT22;10066;48.108;11.448;2023-03-01T00:12:06;1.60;99.90
19813;DHT22;10066;48.108;11.448;2023-03-01T00:14:33;1.60;99.90
19813;DHT22;10066;48.108;11.448;2023-03-01T00:16:59;1.60;99.90
19813;DHT22;10066;48.108;11.448;2023-03-01T00:19:27;1.70;99.90
19813;DHT22;10066;48.108;11.448;2023-03-01T00:21:54;1.60;99.90
19813;DHT22;10066;48.108;11.448;2023-03-01T00:24:21;1.60;99.90
19813;DHT22;10066;48.108;11.448;2023-03-01T00:26:52;1.60;99.90
19813;DHT22;10066;48.108;11.448;2023-03-01T00:29:20;1.60;99.90
19813;DHT22;10066;48.108;11.448;2023-03-01T00:31:47;1.70;99.90
19813;DHT22;10066;48.108;11.448;2023-03-01T00:34:14;1.60;99.90
19813;DHT22;10066;48.108;11.448;2023-03-01T00:36:41;1.60;99.90
19813;DHT22;10066;48.108;11.448;2023-03-01T00:39:12;1.60;99.90
19813;DHT22;10066;48.108;11.448;2023-03-01T00:41:39;1.60;99.90
19813;DHT22;10066;48.108;11.448;2023-03-01T00:44:08;1.50;99.90
19813;DHT22;10066;48.108;11.448;2023-03-01T00:46:36;1.60;99.90
19813;DHT22;10066;48.108;11.448;2023-03-01T00:49:03;1.50;99.90
19813;DHT22;10066;48.108;11.448;2023-03-01T00:51:31;1.50;99.90
19813;DHT22;10066;48.108;11.448;2023-03-01T00:53:59;1.50;99.90
19813;DHT22;10066;48.108;11.448;2023-03-01T00:56:26;1.50;99.90
19813;DHT22;10066;48.108;11.448;2023-03-01T00:58:53;1.50;99.90
19813;DHT22;10066;48.108;11.448;2023-03-01T01:01:23;1.40;99.90
19813;DHT22;10066;48.108;11.448;2023-03-01T01:03:54;1.40;99.90
19813;DHT22;10066;48.108;11.448;2023-03-01T01:06:24;1.40;99.90
19813;DHT22;10066;48.108;11.448;2023-03-01T01:08:52;1.40;99.90
19813;DHT22;10066;48.108;11.448;2023-03-01T01:11:20;1.40;99.90
19813;DHT22;10066;48.108;11.448;2023-03-01T01:13:48;1.40;99.90
19813;DHT22;10066;48.108;11.448;2023-03-01T01:16:16;1.40;99.90
19813;DHT22;10066;48.108;11.448;2023-03-01T01:18:45;1.40;99.90
19813;DHT22;10066;48.108;11.448;2023-03-01T01:21:15;1.40;99.90
19813;DHT22;10066;48.108;11.448;2023-03-01T01:23:43;1.40;99.90
19813;DHT22;10066;48.108;11.448;2023-03-01T01:26:12;1.40;99.90
19813;DHT22;10066;48.108;11.448;2023-03-01T01:28:40;1.40;99.90
19813;DHT22;10066;48.108;11.448;2023-03-01T01:31:07;1.40;99.90
19813;DHT22;10066;48.108;11.448;2023-03-01T01:33:36;1.50;99.90
19813;DHT22;10066;48.108;11.448;2023-03-01T01:36:06;1.50;99.90
19813;DHT22;10066;48.108;11.448;2023-03-01T01:38:34;1.50;99.90
19813;DHT22;10066;48.108;11.448;2023-03-01T01:41:01;1.50;99.90
19813;DHT22;10066;48.108;11.448;2023-03-01T01:43:31;1.40;99.90
19813;DHT22;10066;48.108;11.448;2023-03-01T01:45:59;1.40;99.90
19813;DHT22;10066;48.108;11.448;2023-03-01T01:48:34;1.40;99.90
19813;DHT22;10066;48.108;11.448;2023-03-01T01:51:11;1.40;99.90
19813;DHT22;10066;48.108;11.448;2023-03-01T01:53:39;1.40;99.90
19813;DHT22;10066;48.108;11.448;2023-03-01T01:56:10;1.40;99.90
19813;DHT22;10066;48.108;11.448;2023-03-01T01:58:39;1.40;99.90
19813;DHT22;10066;48.108;11.448;2023-03-01T02:01:09;1.40;99.90
19813;DHT22;10066;48.108;11.448;2023-03-01T02:03:38;1.40;99.90
19813;DHT22;10066;48.108;11.448;2023-03-01T02:06:12;1.30;99.90
19813;DHT22;10066;48.108;11.448;2023-03-01T02:08:47;1.20;99.90
19813;DHT22;10066;48.108;11.448;2023-03-01T02:11:15;1.20;99.90
19813;DHT22;10066;48.108;11.448;2023-03-01T02:13:44;1.30;99.90
19813;DHT22;10066;48.108;11.448;2023-03-01T02:16:13;1.30;99.90
19813;DHT22;10066;48.108;11.448;2023-03-01T02:18:42;1.30;99.90
19813;DHT22;10066;48.108;11.448;2023-03-01T02:21:37;1.30;99.90
19813;DHT22;10066;48.108;11.448;2023-03-01T02:24:10;1.20;99.90
19813;DHT22;10066;48.108;11.448;2023-03-01T02:26:47;1.20;99.90
19813;DHT22;10066;48.108;11.448;2023-03-01T02:29:20;1.20;99.90
19813;DHT22;10066;48.108;11.448;2023-03-01T02:31:48;1.20;99.90
19813;DHT22;10066;48.108;11.448;2023-03-01T02:34:18;1.20;99.90
19813;DHT22;10066;48.108;11.448;2023-03-01T02:36:48;1.20;99.90
19813;DHT22;10066;48.108;11.448;2023-03-01T02:39:21;1.20;99.90
19813;DHT22;10066;48.108;11.448;2023-03-01T02:41:51;1.10;99.90
19813;DHT22;10066;48.108;11.448;2023-03-01T02:44:20;1.10;99.90
19813;DHT22;10066;48.108;11.448;2023-03-01T02:46:49;1.10;99.90
19813;DHT22;10066;48.108;11.448;2023-03-01T02:49:20;1.10;99.90
19813;DHT22;10066;48.108;11.448;2023-03-01T02:54:40;1.00;99.90
19813;DHT22;10066;48.108;11.448;2023-03-01T02:57:10;1.00;99.90
19813;DHT22;10066;48.108;11.448;2023-03-01T02:59:39;1.00;99.90
19813;DHT22;10066;48.108;11.448;2023-03-01T03:02:16;1.00;99.90
19813;DHT22;10066;48.108;11.448;2023-03-01T03:04:46;1.00;99.90
19813;DHT22;10066;48.108;11.448;2023-03-01T03:07:13;1.10;99.90
19813;DHT22;10066;48.108;11.448;2023-03-01T03:09:40;1.00;99.90
19813;DHT22;10066;48.108;11.448;2023-03-01T03:12:07;1.10;99.90
19813;DHT22;10066;48.108;11.448;2023-03-01T03:14:34;1.00;99.90
19813;DHT22;10066;48.108;11.448;2023-03-01T03:17:02;1.10;99.90
19813;DHT22;10066;48.108;11.448;2023-03-01T03:19:32;1.00;99.90
19813;DHT22;10066;48.108;11.448;2023-03-01T03:21:58;1.00;99.90
19813;DHT22;10066;48.108;11.448;2023-03-01T03:24:25;1.00;99.90
19813;DHT22;10066;48.108;11.448;2023-03-01T03:26:52;1.10;99.90
19813;DHT22;10066;48.108;11.448;2023-03-01T03:29:19;1.00;99.90
19813;DHT22;10066;48.108;11.448;2023-03-01T03:31:46;1.00;99.90
19813;DHT22;10066;48.108;11.448;2023-03-01T03:34:14;1.00;99.90
19813;DHT22;10066;48.108;11.448;2023-03-01T03:36:43;0.90;99.90
19813;DHT22;10066;48.108;11.448;2023-03-01T03:39:10;0.90;99.90
19813;DHT22;10066;48.108;11.448;2023-03-01T03:41:37;0.90;99.90
19813;DHT22;10066;48.108;11.448;2023-03-01T03:44:04;0.80;99.90
19813;DHT22;10066;48.108;11.448;2023-03-01T03:46:31;0.80;99.90
19813;DHT22;10066;48.108;11.448;2023-03-01T03:48:58;0.80;99.90
19813;DHT22;10066;48.108;11.448;2023-03-01T03:51:26;0.80;99.90
19813;DHT22;10066;48.108;11.448;2023-03-01T03:53:53;0.70;99.90
19813;DHT22;10066;48.108;11.448;2023-03-01T03:56:20;0.80;99.90
19813;DHT22;10066;48.108;11.448;2023-03-01T03:58:51;0.80;99.90
19813;DHT22;10066;48.108;11.448;2023-03-01T04:01:18;0.70;99.90
19813;DHT22;10066;48.108;11.448;2023-03-01T04:03:45;0.70;99.90
19813;DHT22;10066;48.108;11.448;2023-03-01T04:06:13;0.70;99.90
19813;DHT22;10066;48.108;11.448;2023-03-01T04:08:44;0.70;99.90
19813;DHT22;10066;48.108;11.448;2023-03-01T04:11:11;0.60;99.90
19813;DHT22;10066;48.108;11.448;2023-03-01T04:13:56;0.60;99.90
19813;DHT22;10066;48.108;11.448;2023-03-01T04:16:23;0.50;99.90
19813;DHT22;10066;48.108;11.448;2023-03-01T04:18:50;0.50;99.90
19813;DHT22;10066;48.108;11.448;2023-03-01T04:21:22;0.50;99.90
19813;DHT22;10066;48.108;11.448;2023-03-01T04:23:51;0.50;99.90
19813;DHT22;10066;48.108;11.448;2023-03-01T04:26:19;0.50;99.90
19813;DHT22;10066;48.108;11.448;2023-03-01T04:28:46;0.50;99.90
19813;DHT22;10066;48.108;11.448;2023-03-01T04:31:17;0.40;99.90
19813;DHT22;10066;48.108;11.448;2023-03-01T04:33:48;0.40;99.90
19813;DHT22;10066;48.108;11.448;2023-03-01T04:36:17;0.50;99.90
19813;DHT22;10066;48.108;11.448;2023-03-01T04:38:45;0.40;99.90
19813;DHT22;10066;48.108;11.448;2023-03-01T04:41:16;0.40;99.90
19813;DHT22;10066;48.108;11.448;2023-03-01T04:43:43;0.40;99.90
19813;DHT22;10066;48.108;11.448;2023-03-01T04:46:12;0.40;99.90
19813;DHT22;10066;48.108;11.448;2023-03-01T04:48:41;0.30;99.90
19813;DHT22;10066;48.108;11.448;2023-03-01T04:51:08;0.30;99.90
19813;DHT22;10066;48.108;11.448;2023-03-01T04:53:39;0.30;99.90
19813;DHT22;10066;48.108;11.448;2023-03-01T04:56:07;0.20;99.90
19813;DHT22;10066;48.108;11.448;2023-03-01T04:58:36;0.20;99.90
19813;DHT22;10066;48.108;11.448;2023-03-01T05:01:08;0.20;99.90
19813;DHT22;10066;48.108;11.448;2023-03-01T05:03:41;0.10;99.90
19813;DHT22;10066;48.108;11.448;2023-03-01T05:06:08;0.00;99.90
19813;DHT22;10066;48.108;11.448;2023-03-01T05:08:34;-0.10;99.90
19813;DHT22;10066;48.108;11.448;2023-03-01T05:11:03;-0.10;99.90
19813;DHT22;10066;48.108;11.448;2023-03-01T05:13:30;-0.10;99.90
19813;DHT22;10066;48.108;11.448;2023-03-01T05:16:00;-0.30;99.90
19813;DHT22;10066;48.108;11.448;2023-03-01T05:18:29;-0.20;99.90
19813;DHT22;10066;48.108;11.448;2023-03-01T05:21:02;-0.20;99.90
19813;DHT22;10066;48.108;11.448;2023-03-01T05:23:29;-0.20;99.90
19813;DHT22;10066;48.108;11.448;2023-03-01T05:25:57;-0.20;99.90
19813;DHT22;10066;48.108;11.448;2023-03-01T05:28:25;-0.10;99.90
19813;DHT22;10066;48.108;11.448;2023-03-01T05:30:53;-0.20;99.90
19813;DHT22;10066;48.108;11.448;2023-03-01T05:33:22;-0.10;99.90
19813;DHT22;10066;48.108;11.448;2023-03-01T05:35:50;-0.10;99.90
19813;DHT22;10066;48.108;11.448;2023-03-01T05:38:18;-0.20;99.90
19813;DHT22;10066;48.108;11.448;2023-03-01T05:40:47;-0.20;99.90
19813;DHT22;10066;48.108;11.448;2023-03-01T05:43:15;-0.20;99.90
19813;DHT22;10066;48.108;11.448;2023-03-01T05:45:44;-0.20;99.90
19813;DHT22;10066;48.108;11.448;2023-03-01T05:48:12;-0.20;99.90
19813;DHT22;10066;48.108;11.448;2023-03-01T05:50:42;-0.10;99.90
19813;DHT22;10066;48.108;11.448;2023-03-01T05:53:11;-0.20;99.90
19813;DHT22;10066;48.108;11.448;2023-03-01T05:55:39;-0.10;99.90
19813;DHT22;10066;48.108;11.448;2023-03-01T05:58:09;-0.10;99.90
19813;DHT22;10066;48.108;11.448;2023-03-01T06:00:36;-0.10;99.90
19813;DHT22;10066;48.108;11.448;2023-03-01T06:03:03;-0.10;99.90
19813;DHT22;10066;48.108;11.448;2023-03-01T06:05:30;-0.20;99.90
19813;DHT22;10066;48.108;11.448;2023-03-01T06:08:00;-0.10;99.90
19813;DHT22;10066;48.108;11.448;2023-03-01T06:10:28;-0.10;99.90
19813;DHT22;10066;48.108;11.448;2023-03-01T06:12:55;-0.10;99.90
19813;DHT22;10066;48.108;11.448;2023-03-01T06:15:24;0.00;99.90
19813;DHT22;10066;48.108;11.448;2023-03-01T06:17:54;0.00;99.90
19813;DHT22;10066;48.108;11.448;2023-03-01T06:20:24;0.00;99.90
19813;DHT22;10066;48.108;11.448;2023-03-01T06:22:52;0.00;99.90
19813;DHT22;10066;48.108;11.448;2023-03-01T06:25:22;0.00;99.90
19813;DHT22;10066;48.108;11.448;2023-03-01T06:27:49;0.10;99.90
19813;DHT22;10066;48.108;11.448;2023-03-01T06:30:19;0.10;99.90
19813;DHT22;10066;48.108;11.448;2023-03-01T06:32:49;0.10;99.90
19813;DHT22;10066;48.108;11.448;2023-03-01T06:35:17;0.00;99.90
19813;DHT22;10066;48.108;11.448;2023-03-01T06:37:45;0.10;99.90
19813;DHT22;10066;48.108;11.448;2023-03-01T06:40:13;0.00;99.90
19813;DHT22;10066;48.108;11.448;2023-03-01T06:42:43;0.10;99.90
19813;DHT22;10066;48.108;11.448;2023-03-01T06:45:11;0.10;99.90
19813;DHT22;10066;48.108;11.448;2023-03-01T06:47:38;0.10;99.90
19813;DHT22;10066;48.108;11.448;2023-03-01T06:50:05;0.10;99.90
19813;DHT22;10066;48.108;11.448;2023-03-01T06:52:32;0.10;99.90
19813;DHT22;10066;48.108;11.448;2023-03-01T06:54:59;0.10;99.90
19813;DHT22;10066;48.108;11.448;2023-03-01T06:57:27;0.10;99.90
19813;DHT22;10066;48.108;11.448;2023-03-01T06:59:56;0.20;99.90
19813;DHT22;10066;48.108;11.448;2023-03-01T07:02:23;0.10;99.90
19813;DHT22;10066;48.108;11.448;2023-03-01T07:04:50;0.10;99.90
19813;DHT22;10066;48.108;11.448;2023-03-01T07:07:18;0.20;99.90
19813;DHT22;10066;48.108;11.448;2023-03-01T07:09:45;0.20;99.90
19813;DHT22;10066;48.108;11.448;2023-03-01T07:12:12;0.20;99.90
19813;DHT22;10066;48.108;11.448;2023-03-01T07:14:39;0.20;99.90
19813;DHT22;10066;48.108;11.448;2023-03-01T07:17:08;0.30;99.90
19813;DHT22;10066;48.108;11.448;2023-03-01T07:19:35;0.20;99.90
19813;DHT22;10066;48.108;11.448;2023-03-01T07:22:03;0.20;99.90
19813;DHT22;10066;48.108;11.448;2023-03-01T07:24:34;0.20;99.90
19813;DHT22;10066;48.108;11.448;2023-03-01T07:27:01;0.20;99.90
19813;DHT22;10066;48.108;11.448;2023-03-01T07:29:28;0.20;99.90
19813;DHT22;10066;48.108;11.448;2023-03-01T07:31:55;0.30;99.90
19813;DHT22;10066;48.108;11.448;2023-03-01T07:34:25;0.30;99.90
19813;DHT22;10066;48.108;11.448;2023-03-01T07:36:51;0.40;99.90
19813;DHT22;10066;48.108;11.448;2023-03-01T07:39:19;0.40;99.90
19813;DHT22;10066;48.108;11.448;2023-03-01T07:41:46;0.50;99.90
19813;DHT22;10066;48.108;11.448;2023-03-01T07:44:13;0.50;99.90
19813;DHT22;10066;48.108;11.448;2023-03-01T07:46:40;0.60;99.90
19813;DHT22;10066;48.108;11.448;2023-03-01T07:49:08;0.60;99.90
19813;DHT22;10066;48.108;11.448;2023-03-01T07:51:37;0.60;99.90
19813;DHT22;10066;48.108;11.448;2023-03-01T07:54:04;0.70;99.90
19813;DHT22;10066;48.108;11.448;2023-03-01T07:56:31;0.60;99.90
19813;DHT22;10066;48.108;11.448;2023-03-01T07:59:00;0.70;99.90
19813;DHT22;10066;48.108;11.448;2023-03-01T08:01:26;0.60;99.90
19813;DHT22;10066;48.108;11.448;2023-03-01T08:03:53;0.70;99.90
19813;DHT22;10066;48.108;11.448;2023-03-01T08:06:20;0.70;99.90
19813;DHT22;10066;48.108;11.448;2023-03-01T08:08:49;0.80;99.90
19813;DHT22;10066;48.108;11.448;2023-03-01T08:11:18;0.80;99.90
19813;DHT22;10066;48.108;11.448;2023-03-01T08:13:47;0.80;99.90
19813;DHT22;10066;48.108;11.448;2023-03-01T08:16:15;0.90;99.90
19813;DHT22;10066;48.108;11.448;2023-03-01T08:18:42;1.00;99.90
19813;DHT22;10066;48.108;11.448;2023-03-01T08:21:11;1.10;99.90
19813;DHT22;10066;48.108;11.448;2023-03-01T08:23:38;1.10;99.90
19813;DHT22;10066;48.108;11.448;2023-03-01T08:26:10;1.20;99.90
19813;DHT22;10066;48.108;11.448;2023-03-01T08:28:38;1.30;99.90
19813;DHT22;10066;48.108;11.448;2023-03-01T08:31:16;1.30;99.90
19813;DHT22;10066;48.108;11.448;2023-03-01T08:33:43;1.40;99.90
19813;DHT22;10066;48.108;11.448;2023-03-01T08:36:16;1.50;99.90
19813;DHT22;10066;48.108;11.448;2023-03-01T08:38:43;1.50;99.90
19813;DHT22;10066;48.108;11.448;2023-03-01T08:41:12;1.40;99.90
19813;DHT22;10066;48.108;11.448;2023-03-01T08:43:39;1.40;99.90
19813;DHT22;10066;48.108;11.448;2023-03-01T08:46:06;1.50;99.90
19813;DHT22;10066;48.108;11.448;2023-03-01T08:48:33;1.50;99.90
19813;DHT22;10066;48.108;11.448;2023-03-01T08:51:07;1.50;99.90
19813;DHT22;10066;48.108;11.448;2023-03-01T08:53:34;1.70;99.90
19813;DHT22;10066;48.108;11.448;2023-03-01T08:56:01;1.70;99.90
19813;DHT22;10066;48.108;11.448;2023-03-01T08:58:30;1.70;99.90
19813;DHT22;10066;48.108;11.448;2023-03-01T09:00:57;1.80;99.90
19813;DHT22;10066;48.108;11.448;2023-03-01T09:03:24;1.80;99.90
19813;DHT22;10066;48.108;11.448;2023-03-01T09:05:51;1.80;99.90
19813;DHT22;10066;48.108;11.448;2023-03-01T09:08:19;1.70;99.90
19813;DHT22;10066;48.108;11.448;2023-03-01T09:10:46;1.90;99.90
19813;DHT22;10066;48.108;11.448;2023-03-01T09:13:13;1.90;99.90
19813;DHT22;10066;48.108;11.448;2023-03-01T09:15:41;1.90;99.90
19813;DHT22;10066;48.108;11.448;2023-03-01T09:18:09;1.90;99.90
19813;DHT22;10066;48.108;11.448;2023-03-01T09:20:39;2.00;99.90
19813;DHT22;10066;48.108;11.448;2023-03-01T09:23:06;2.10;99.90
19813;DHT22;10066;48.108;11.448;2023-03-01T09:25:34;2.10;99.90
19813;DHT22;10066;48.108;11.448;2023-03-01T09:28:01;2.10;99.90
19813;DHT22;10066;48.108;11.448;2023-03-01T09:30:29;2.00;99.90
19813;DHT22;10066;48.108;11.448;2023-03-01T09:32:58;2.00;99.90
19813;DHT22;10066;48.108;11.448;2023-03-01T09:35:25;2.20;99.90
19813;DHT22;10066;48.108;11.448;2023-03-01T09:37:53;2.20;99.90
19813;DHT22;10066;48.108;11.448;2023-03-01T09:40:22;2.30;99.90
19813;DHT22;10066;48.108;11.448;2023-03-01T09:42:53;2.40;99.90
19813;DHT22;10066;48.108;11.448;2023-03-01T09:45:32;2.30;99.90
19813;DHT22;10066;48.108;11.448;2023-03-01T09:48:02;2.20;99.90
19813;DHT22;10066;48.108;11.448;2023-03-01T09:50:34;2.20;99.90
19813;DHT22;10066;48.108;11.448;2023-03-01T09:53:04;2.20;99.90
19813;DHT22;10066;48.108;11.448;2023-03-01T09:55:38;2.20;99.90
19813;DHT22;10066;48.108;11.448;2023-03-01T09:58:29;2.20;99.90
19813;DHT22;10066;48.108;11.448;2023-03-01T10:01:02;2.30;99.90
19813;DHT22;10066;48.108;11.448;2023-03-01T10:03:36;2.30;99.90
19813;DHT22;10066;48.108;11.448;2023-03-01T10:06:13;2.40;99.90
19813;DHT22;10066;48.108;11.448;2023-03-01T10:08:45;2.50;99.90
19813;DHT22;10066;48.108;11.448;2023-03-01T10:11:20;2.60;99.90
19813;DHT22;10066;48.108;11.448;2023-03-01T10:13:55;2.50;99.90
19813;DHT22;10066;48.108;11.448;2023-03-01T10:16:28;2.60;99.90
19813;DHT22;10066;48.108;11.448;2023-03-01T10:19:02;2.70;99.90
19813;DHT22;10066;48.108;11.448;2023-03-01T10:21:30;2.80;99.90
19813;DHT22;10066;48.108;11.448;2023-03-01T10:24:08;2.80;99.90
19813;DHT22;10066;48.108;11.448;2023-03-01T10:26:47;2.80;99.90
19813;DHT22;10066;48.108;11.448;2023-03-01T10:29:15;2.50;99.90
19813;DHT22;10066;48.108;11.448;2023-03-01T10:31:44;2.40;99.90
19813;DHT22;10066;48.108;11.448;2023-03-01T10:34:16;2.30;99.90
19813;DHT22;10066;48.108;11.448;2023-03-01T10:36:45;2.40;99.90
19813;DHT22;10066;48.108;11.448;2023-03-01T10:39:16;2.40;99.90
19813;DHT22;10066;48.108;11.448;2023-03-01T10:42:02;2.50;99.90
19813;DHT22;10066;48.108;11.448;2023-03-01T10:44:39;2.60;99.90
19813;DHT22;10066;48.108;11.448;2023-03-01T10:47:16;2.70;99.90
19813;DHT22;10066;48.108;11.448;2023-03-01T10:50:05;2.80;99.90
19813;DHT22;10066;48.108;11.448;2023-03-01T10:52:37;2.80;99.90
19813;DHT22;10066;48.108;11.448;2023-03-01T10:55:24;2.80;99.90
19813;DHT22;10066;48.108;11.448;2023-03-01T10:58:07;2.70;99.90
19813;DHT22;10066;48.108;11.448;2023-03-01T11:00:46;2.70;99.90
19813;DHT22;10066;48.108;11.448;2023-03-01T11:03:14;2.50;99.90
19813;DHT22;10066;48.108;11.448;2023-03-01T11:06:01;2.40;99.90
19813;DHT22;10066;48.108;11.448;2023-03-01T11:08:39;2.40;99.90
19813;DHT22;10066;48.108;11.448;2023-03-01T11:11:29;2.30;99.90
19813;DHT22;10066;48.108;11.448;2023-03-01T11:13:59;2.40;99.90
19813;DHT22;10066;48.108;11.448;2023-03-01T11:16:30;2.30;99.90
19813;DHT22;10066;48.108;11.448;2023-03-01T11:19:00;2.30;99.90
19813;DHT22;10066;48.108;11.448;2023-03-01T11:21:32;2.40;99.90
19813;DHT22;10066;48.108;11.448;2023-03-01T11:24:01;2.50;99.90
19813;DHT22;10066;48.108;11.448;2023-03-01T11:26:30;2.50;99.90
19813;DHT22;10066;48.108;11.448;2023-03-01T11:29:04;2.50;99.90
19813;DHT22;10066;48.108;11.448;2023-03-01T11:31:33;2.50;99.90
19813;DHT22;10066;48.108;11.448;2023-03-01T11:34:06;2.50;99.90
19813;DHT22;10066;48.108;11.448;2023-03-01T11:36:41;2.40;99.90
19813;DHT22;10066;48.108;11.448;2023-03-01T11:39:20;2.50;99.90
19813;DHT22;10066;48.108;11.448;2023-03-01T11:41:57;2.60;99.90
19813;DHT22;10066;48.108;11.448;2023-03-01T11:44:28;2.60;99.90
19813;DHT22;10066;48.108;11.448;2023-03-01T11:47:15;2.70;99.90
19813;DHT22;10066;48.108;11.448;2023-03-01T11:52:48;2.80;99.90
19813;DHT22;10066;48.108;11.448;2023-03-01T11:55:43;2.70;99.90
19813;DHT22;10066;48.108;11.448;2023-03-01T12:01:23;3.00;99.90
19813;DHT22;10066;48.108;11.448;2023-03-01T12:04:06;3.10;99.90
19813;DHT22;10066;48.108;11.448;2023-03-01T12:06:44;3.10;99.90
19813;DHT22;10066;48.108;11.448;2023-03-01T12:09:26;3.10;99.90
19813;DHT22;10066;48.108;11.448;2023-03-01T12:12:17;3.30;99.90
19813;DHT22;10066;48.108;11.448;2023-03-01T12:14:59;3.40;99.90
19813;DHT22;10066;48.108;11.448;2023-03-01T12:17:51;3.50;99.90
19813;DHT22;10066;48.108;11.448;2023-03-01T12:20:29;3.70;99.90
19813;DHT22;10066;48.108;11.448;2023-03-01T12:23:20;3.70;99.90
19813;DHT22;10066;48.108;11.448;2023-03-01T12:25:58;3.70;99.90
19813;DHT22;10066;48.108;11.448;2023-03-01T12:28:45;3.70;99.90
19813;DHT22;10066;48.108;11.448;2023-03-01T12:31:36;3.80;99.90
19813;DHT22;10066;48.108;11.448;2023-03-01T12:34:12;3.90;99.90
19813;DHT22;10066;48.108;11.448;2023-03-01T12:36:53;3.90;99.90
19813;DHT22;10066;48.108;11.448;2023-03-01T12:39:37;4.00;99.90
19813;DHT22;10066;48.108;11.448;2023-03-01T12:42:18;4.10;99.90
19813;DHT22;10066;48.108;11.448;2023-03-01T12:45:21;4.10;99.90
19813;DHT22;10066;48.108;11.448;2023-03-01T12:48:10;4.10;99.90
19813;DHT22;10066;48.108;11.448;2023-03-01T12:50:42;4.10;99.90
19813;DHT22;10066;48.108;11.448;2023-03-01T12:53:22;4.20;99.90
19813;DHT22;10066;48.108;11.448;2023-03-01T12:55:50;4.20;99.90
19813;DHT22;10066;48.108;11.448;2023-03-01T12:58:26;4.20;99.90
19813;DHT22;10066;48.108;11.448;2023-03-01T13:01:08;4.30;99.90
19813;DHT22;10066;48.108;11.448;2023-03-01T13:04:01;4.30;99.90
19813;DHT22;10066;48.108;11.448;2023-03-01T13:06:35;4.30;99.90
19813;DHT22;10066;48.108;11.448;2023-03-01T13:09:13;4.30;99.90
19813;DHT22;10066;48.108;11.448;2023-03-01T13:11:41;4.30;99.90
19813;DHT22;10066;48.108;11.448;2023-03-01T13:14:39;4.20;99.90
19813;DHT22;10066;48.108;11.448;2023-03-01T13:17:32;4.30;99.90
19813;DHT22;10066;48.108;11.448;2023-03-01T13:19:59;4.40;99.90
19813;DHT22;10066;48.108;11.448;2023-03-01T13:22:29;4.40;99.90
19813;DHT22;10066;48.108;11.448;2023-03-01T13:25:13;4.40;99.90
19813;DHT22;10066;48.108;11.448;2023-03-01T13:27:40;4.40;99.90
19813;DHT22;10066;48.108;11.448;2023-03-01T13:30:42;4.40;99.90
19813;DHT22;10066;48.108;11.448;2023-03-01T13:33:37;4.50;99.90
19813;DHT22;10066;48.108;11.448;2023-03-01T13:36:07;4.60;99.90
19813;DHT22;10066;48.108;11.448;2023-03-01T13:38:46;4.70;99.90
19813;DHT22;10066;48.108;11.448;2023-03-01T13:41:15;4.70;99.90
19813;DHT22;10066;48.108;11.448;2023-03-01T13:43:43;4.70;99.90
19813;DHT22;10066;48.108;11.448;2023-03-01T13:46:18;4.80;99.90
19813;DHT22;10066;48.108;11.448;2023-03-01T13:48:50;4.80;99.90
19813;DHT22;10066;48.108;11.448;2023-03-01T13:51:23;4.90;99.90
19813;DHT22;10066;48.108;11.448;2023-03-01T13:53:50;5.00;99.90
19813;DHT22;10066;48.108;11.448;2023-03-01T13:56:23;5.10;99.90
19813;DHT22;10066;48.108;11.448;2023-03-01T13:58:53;5.10;99.90
19813;DHT22;10066;48.108;11.448;2023-03-01T14:01:26;5.00;99.90
19813;DHT22;10066;48.108;11.448;2023-03-01T14:03:53;5.10;99.90
19813;DHT22;10066;48.108;11.448;2023-03-01T14:06:22;5.10;99.90
19813;DHT22;10066;48.108;11.448;2023-03-01T14:08:51;5.00;99.90
19813;DHT22;10066;48.108;11.448;2023-03-01T14:14:44;5.00;99.90
19813;DHT22;10066;48.108;11.448;2023-03-01T14:17:49;5.10;99.90
19813;DHT22;10066;48.108;11.448;2023-03-01T14:20:19;5.10;99.90
19813;DHT22;10066;48.108;11.448;2023-03-01T14:22:48;5.10;99.90
19813;DHT22;10066;48.108;11.448;2023-03-01T14:25:24;5.20;99.90
19813;DHT22;10066;48.108;11.448;2023-03-01T14:27:56;5.20;99.90
19813;DHT22;10066;48.108;11.448;2023-03-01T14:30:26;5.20;99.90
19813;DHT22;10066;48.108;11.448;2023-03-01T14:32:57;5.20;99.90
19813;DHT22;10066;48.108;11.448;2023-03-01T14:35:26;5.20;99.90
19813;DHT22;10066;48.108;11.448;2023-03-01T14:37:53;5.30;99.90
19813;DHT22;10066;48.108;11.448;2023-03-01T14:40:26;5.30;99.90
19813;DHT22;10066;48.108;11.448;2023-03-01T14:42:56;5.30;99.90
19813;DHT22;10066;48.108;11.448;2023-03-01T14:45:25;5.30;99.90
19813;DHT22;10066;48.108;11.448;2023-03-01T14:47:55;5.40;99.90
19813;DHT22;10066;48.108;11.448;2023-03-01T14:50:27;5.30;99.90
19813;DHT22;10066;48.108;11.448;2023-03-01T14:52:57;5.40;99.90
19813;DHT22;10066;48.108;11.448;2023-03-01T14:55:28;5.50;99.90
19813;DHT22;10066;48.108;11.448;2023-03-01T14:57:56;5.50;99.90
19813;DHT22;10066;48.108;11.448;2023-03-01T15:00:26;5.50;99.90
19813;DHT22;10066;48.108;11.448;2023-03-01T15:02:56;5.50;99.90
19813;DHT22;10066;48.108;11.448;2023-03-01T15:05:29;5.60;99.90
19813;DHT22;10066;48.108;11.448;2023-03-01T15:07:57;5.60;99.90
19813;DHT22;10066;48.108;11.448;2023-03-01T15:10:27;5.70;99.90
19813;DHT22;10066;48.108;11.448;2023-03-01T15:12:54;5.70;99.90
19813;DHT22;10066;48.108;11.448;2023-03-01T15:15:31;5.70;99.90
19813;DHT22;10066;48.108;11.448;2023-03-01T15:18:02;5.70;99.90
19813;DHT22;10066;48.108;11.448;2023-03-01T15:20:30;5.70;99.90
19813;DHT22;10066;48.108;11.448;2023-03-01T15:23:01;5.70;99.90
19813;DHT22;10066;48.108;11.448;2023-03-01T15:25:30;5.80;99.90
19813;DHT22;10066;48.108;11.448;2023-03-01T15:27:59;5.80;99.90
19813;DHT22;10066;48.108;11.448;2023-03-01T15:30:30;5.80;99.90
19813;DHT22;10066;48.108;11.448;2023-03-01T15:33:25;5.80;99.90
19813;DHT22;10066;48.108;11.448;2023-03-01T15:35:55;5.80;99.90
19813;DHT22;10066;48.108;11.448;2023-03-01T15:38:32;5.80;99.90
19813;DHT22;10066;48.108;11.448;2023-03-01T15:41:01;5.70;99.90
19813;DHT22;10066;48.108;11.448;2023-03-01T15:43:43;5.80;99.90
19813;DHT22;10066;48.108;11.448;2023-03-01T15:46:23;5.70;99.90
19813;DHT22;10066;48.108;11.448;2023-03-01T15:51:33;5.70;99.90
19813;DHT22;10066;48.108;11.448;2023-03-01T15:54:04;5.60;99.90
19813;DHT22;10066;48.108;11.448;2023-03-01T15:56:34;5.70;99.90
19813;DHT22;10066;48.108;11.448;2023-03-01T15:59:02;5.60;99.90
19813;DHT22;10066;48.108;11.448;2023-03-01T16:01:30;5.60;99.90
19813;DHT22;10066;48.108;11.448;2023-03-01T16:04:01;5.60;99.90
19813;DHT22;10066;48.108;11.448;2023-03-01T16:06:28;5.60;99.90
19813;DHT22;10066;48.108;11.448;2023-03-01T16:08:58;5.60;99.90
19813;DHT22;10066;48.108;11.448;2023-03-01T16:11:24;5.60;99.90